Time;durP1;ratioP1;P1;durP2;ratioP2;P2;SDS_P1;SDS_P2;PMS_P1;PMS_P2;Temp;Humidity;BMP_temperature;BMP_pressure;BME280_temperature;BME280_humidity;BME280_pressure;Samples;Min_cycle;Max_cycle;Signal;HPM_P1;HPM_P2
2023/06/23 00:00:08;;;;;;;6.50;3.90;;;;;;;;;;5046755;28;20526;-82
2023/06/23 00:02:36;;;;;;;7.17;4.00;;;;;;;;;;5046097;28;20441;-83
2023/06/23 00:05:04;;;;;;;4.27;3.40;;;;;;;;;;5046396;28;20449;-85
2023/06/23 00:07:32;;;;;;;5.20;3.97;;;;;;;;;;5048268;28;20439;-82
2023/06/23 00:13:03;;;;;;;5.10;4.30;;;;;;;;;;5052631;28;20437;-82
2023/06/23 00:16:04;;;;;;;7.70;3.90;;;;;;;;;;5051451;22;20497;-72
2023/06/23 00:18:42;;;;;;;6.17;4.03;;;;;;;;;;5037353;28;20465;-70
2023/06/23 00:21:10;;;;;;;6.90;4.83;;;;;;;;;;5036720;28;20465;-72
2023/06/23 00:23:39;;;;;;;10.83;4.20;;;;;;;;;;5036656;28;20454;-73
2023/06/23 01:29:00;;;;;;;4.00;3.50;;;;;;;;;;4319029;26;21044;-80
2023/06/23 01:31:31;;;;;;;5.27;4.13;;;;;;;;;;4986568;28;20456;-82
2023/06/23 01:33:59;;;;;;;7.20;4.70;;;;;;;;;;4987549;28;20468;-82
2023/06/23 01:36:29;;;;;;;4.63;3.70;;;;;;;;;;4987148;28;20484;-81
2023/06/23 01:38:59;;;;;;;7.07;4.37;;;;;;;;;;4991121;28;20449;-81
2023/06/23 01:41:29;;;;;;;6.33;3.93;;;;;;;;;;4992917;28;20761;-82
2023/06/23 01:43:57;;;;;;;5.80;4.40;;;;;;;;;;4991815;28;20586;-84
2023/06/23 01:46:34;;;;;;;5.90;3.63;;;;;;;;;;4989181;28;20457;-81
2023/06/23 01:49:02;;;;;;;5.57;4.87;;;;;;;;;;4991995;28;20644;-82
2023/06/23 01:51:31;;;;;;;5.93;3.77;;;;;;;;;;4991382;28;20776;-82
2023/06/23 01:53:59;;;;;;;4.93;3.90;;;;;;;;;;4988910;28;20897;-84
2023/06/23 01:56:27;;;;;;;4.10;3.50;;;;;;;;;;4989725;28;20441;-82
2023/06/23 01:58:57;;;;;;;7.97;4.43;;;;;;;;;;4989655;28;20453;-81
2023/06/23 02:01:24;;;;;;;5.80;3.60;;;;;;;;;;4985189;28;20528;-82
2023/06/23 02:03:54;;;;;;;6.00;4.10;;;;;;;;;;4985203;28;20457;-80
2023/06/23 02:06:22;;;;;;;6.03;3.27;;;;;;;;;;4991918;28;20468;-83
2023/06/23 02:11:54;;;;;;;5.60;3.07;;;;;;;;;;4992347;28;20435;-83
2023/06/23 02:14:26;;;;;;;8.10;3.33;;;;;;;;;;5014406;23;20515;-72
2023/06/23 02:16:55;;;;;;;5.67;3.83;;;;;;;;;;4968220;28;20449;-72
2023/06/23 02:19:26;;;;;;;3.90;2.83;;;;;;;;;;4960215;28;20450;-71
2023/06/23 02:21:55;;;;;;;4.90;2.93;;;;;;;;;;4959907;28;20834;-72
2023/06/23 02:24:24;;;;;;;7.53;3.70;;;;;;;;;;4979840;28;20537;-71
2023/06/23 02:26:51;;;;;;;4.83;3.00;;;;;;;;;;4987526;23;20506;-82
2023/06/23 02:29:19;;;;;;;5.10;3.70;;;;;;;;;;4966835;29;20514;-82
2023/06/23 02:31:47;;;;;;;4.93;3.40;;;;;;;;;;4967498;28;20768;-82
2023/06/23 02:34:14;;;;;;;5.07;3.50;;;;;;;;;;4971407;29;20478;-83
2023/06/23 02:36:46;;;;;;;9.13;3.53;;;;;;;;;;4967948;28;20465;-82
2023/06/23 02:39:14;;;;;;;5.17;4.40;;;;;;;;;;4968801;29;20462;-83
2023/06/23 02:41:43;;;;;;;7.80;5.50;;;;;;;;;;4969355;28;20520;-83
2023/06/23 02:44:13;;;;;;;5.80;4.23;;;;;;;;;;4969359;28;20473;-83
2023/06/23 02:46:42;;;;;;;5.83;3.80;;;;;;;;;;4969836;28;20453;-83
2023/06/23 02:49:11;;;;;;;6.27;4.00;;;;;;;;;;4969364;29;20723;-84
2023/06/23 02:51:39;;;;;;;8.10;4.57;;;;;;;;;;4969003;28;20868;-83
2023/06/23 02:54:10;;;;;;;7.10;4.57;;;;;;;;;;4968088;28;20465;-82
2023/06/23 02:56:41;;;;;;;9.73;5.00;;;;;;;;;;4967966;28;20525;-83
2023/06/23 02:59:10;;;;;;;8.17;5.27;;;;;;;;;;4966637;28;20458;-80
2023/06/23 03:01:40;;;;;;;5.43;4.00;;;;;;;;;;4965068;28;20917;-83
2023/06/23 03:04:07;;;;;;;5.93;4.90;;;;;;;;;;4962410;29;20457;-82
2023/06/23 03:06:38;;;;;;;7.60;5.67;;;;;;;;;;4960963;28;20524;-82
2023/06/23 03:12:11;;;;;;;7.40;5.63;;;;;;;;;;4960802;28;20986;-80
2023/06/23 03:14:39;;;;;;;6.27;4.57;;;;;;;;;;4972054;23;20482;-71
2023/06/23 03:17:08;;;;;;;7.10;4.83;;;;;;;;;;4955357;29;20468;-71
2023/06/23 03:19:39;;;;;;;5.00;4.43;;;;;;;;;;4956257;29;20452;-71
2023/06/23 03:22:07;;;;;;;5.93;4.90;;;;;;;;;;4957277;29;20462;-71
2023/06/23 03:24:36;;;;;;;6.90;5.47;;;;;;;;;;4957030;28;20461;-70
2023/06/23 03:27:07;;;;;;;7.10;4.90;;;;;;;;;;4972188;23;20498;-83
2023/06/23 03:29:39;;;;;;;5.80;4.83;;;;;;;;;;4970052;28;20550;-85
2023/06/23 03:32:08;;;;;;;7.57;4.63;;;;;;;;;;4967187;28;20468;-83
2023/06/23 03:34:39;;;;;;;6.57;4.90;;;;;;;;;;4965432;29;20509;-83
2023/06/23 03:37:08;;;;;;;5.83;4.20;;;;;;;;;;4965040;28;20465;-81
2023/06/23 03:39:37;;;;;;;5.30;4.73;;;;;;;;;;4965398;29;20474;-82
2023/06/23 03:42:05;;;;;;;5.50;3.57;;;;;;;;;;4965594;28;20703;-82
2023/06/23 03:44:35;;;;;;;6.20;3.87;;;;;;;;;;4965172;29;20549;-83
2023/06/23 03:47:10;;;;;;;5.87;3.50;;;;;;;;;;4967128;28;20846;-82
2023/06/23 03:49:41;;;;;;;5.17;3.80;;;;;;;;;;4964436;28;20485;-82
2023/06/23 03:52:11;;;;;;;6.33;4.27;;;;;;;;;;4964442;28;20465;-83
2023/06/23 03:54:39;;;;;;;4.83;3.97;;;;;;;;;;4967257;28;20819;-83
2023/06/23 03:57:08;;;;;;;5.57;4.00;;;;;;;;;;4966347;29;20469;-81
2023/06/23 03:59:38;;;;;;;5.43;3.60;;;;;;;;;;4964100;29;20435;-83
2023/06/23 04:02:08;;;;;;;7.40;4.73;;;;;;;;;;4966536;29;20476;-84
2023/06/23 04:04:36;;;;;;;4.90;3.50;;;;;;;;;;4964222;28;20465;-83
2023/06/23 04:07:05;;;;;;;5.93;4.90;;;;;;;;;;4963568;28;20468;-83
2023/06/23 04:15:05;;;;;;;6.20;5.07;;;;;;;;;;5015937;23;20919;-74
2023/06/23 04:17:35;;;;;;;5.50;4.30;;;;;;;;;;4956780;28;20230;-74
2023/06/23 04:20:04;;;;;;;6.60;4.10;;;;;;;;;;4956749;29;20454;-72
2023/06/23 04:22:33;;;;;;;6.57;4.60;;;;;;;;;;4954666;29;20446;-73
2023/06/23 04:25:01;;;;;;;5.27;3.70;;;;;;;;;;4961644;29;20469;-74
2023/06/23 04:40:31;;;;;;;6.87;5.03;;;;;;;;;;3178048;23;20499;-72
2023/06/23 04:43:02;;;;;;;7.93;5.93;;;;;;;;;;4975422;28;20465;-72
2023/06/23 04:45:33;;;;;;;6.30;4.93;;;;;;;;;;4958842;28;20477;-73
2023/06/23 04:48:02;;;;;;;7.67;5.63;;;;;;;;;;4957680;28;20582;-73
2023/06/23 04:50:32;;;;;;;6.40;5.20;;;;;;;;;;4960027;28;20478;-72
2023/06/23 04:53:04;;;;;;;6.73;6.03;;;;;;;;;;4957272;28;20533;-72
2023/06/23 04:55:35;;;;;;;9.53;6.23;;;;;;;;;;4994247;28;20459;-72
2023/06/23 04:58:05;;;;;;;8.40;6.60;;;;;;;;;;4996760;28;20455;-72
2023/06/23 05:00:34;;;;;;;7.80;6.10;;;;;;;;;;4993465;28;20453;-72
2023/06/23 05:03:02;;;;;;;7.70;6.60;;;;;;;;;;4984094;28;20512;-72
2023/06/23 05:05:32;;;;;;;10.53;6.40;;;;;;;;;;4982101;28;20607;-74
2023/06/23 05:08:01;;;;;;;7.00;6.30;;;;;;;;;;4992338;28;20444;-73
2023/06/23 05:10:30;;;;;;;6.90;5.10;;;;;;;;;;4992462;28;20591;-72
2023/06/23 05:13:02;;;;;;;7.40;5.77;;;;;;;;;;4989416;28;20458;-72
2023/06/23 05:15:33;;;;;;;7.90;5.73;;;;;;;;;;4988528;28;20472;-73
2023/06/23 05:18:03;;;;;;;7.37;6.50;;;;;;;;;;4980745;28;20453;-72
2023/06/23 05:20:32;;;;;;;6.97;5.50;;;;;;;;;;4971131;28;20879;-72
2023/06/23 05:23:04;;;;;;;8.07;6.37;;;;;;;;;;4978925;28;20471;-72
2023/06/23 05:25:32;;;;;;;7.77;5.43;;;;;;;;;;4989119;28;20456;-72
2023/06/23 05:41:11;;;;;;;9.23;5.80;;;;;;;;;;5129860;27;20536;-73
2023/06/23 05:43:39;;;;;;;9.03;6.27;;;;;;;;;;5096177;28;20475;-73
2023/06/23 05:46:14;;;;;;;6.37;5.43;;;;;;;;;;5093870;28;20689;-72
2023/06/23 05:48:44;;;;;;;7.20;5.87;;;;;;;;;;5090526;28;20480;-73
2023/06/23 05:51:31;;;;;;;8.33;5.60;;;;;;;;;;5093394;28;20547;-72
2023/06/23 05:54:04;;;;;;;6.93;6.23;;;;;;;;;;5089161;28;20552;-73
2023/06/23 05:56:39;;;;;;;7.00;6.07;;;;;;;;;;5100389;28;20521;-73
2023/06/23 05:59:13;;;;;;;7.77;5.70;;;;;;;;;;5091910;28;20447;-73
2023/06/23 06:01:42;;;;;;;11.10;5.67;;;;;;;;;;5086567;28;20501;-73
2023/06/23 06:04:14;;;;;;;6.10;5.50;;;;;;;;;;5087174;28;21122;-73
2023/06/23 06:06:47;;;;;;;6.00;4.80;;;;;;;;;;5088146;28;20452;-73
2023/06/23 06:09:16;;;;;;;8.00;5.57;;;;;;;;;;5090576;28;20916;-73
2023/06/23 06:11:48;;;;;;;5.87;4.63;;;;;;;;;;5089423;28;20877;-71
2023/06/23 06:14:19;;;;;;;6.10;5.50;;;;;;;;;;5087195;28;20454;-72
2023/06/23 06:16:50;;;;;;;6.10;5.20;;;;;;;;;;5088026;28;21016;-72
2023/06/23 06:19:20;;;;;;;7.63;5.40;;;;;;;;;;5087836;28;20460;-73
2023/06/23 06:21:55;;;;;;;8.77;5.40;;;;;;;;;;5086582;28;20879;-73
2023/06/23 06:24:25;;;;;;;6.37;4.87;;;;;;;;;;5099624;28;20976;-72
2023/06/23 06:32:12;;;;;;;6.67;4.70;;;;;;;;;;4535925;22;20492;-77
2023/06/23 06:34:42;;;;;;;5.07;4.10;;;;;;;;;;5098371;28;20473;-74
2023/06/23 06:37:12;;;;;;;7.73;5.30;;;;;;;;;;5086395;28;20451;-73
2023/06/23 06:39:41;;;;;;;7.00;4.97;;;;;;;;;;5100705;28;20473;-74
2023/06/23 06:42:09;;;;;;;5.87;4.70;;;;;;;;;;5092332;28;20512;-73
2023/06/23 06:44:48;;;;;;;6.10;5.03;;;;;;;;;;5083982;28;20463;-74
2023/06/23 06:47:40;;;;;;;5.80;4.90;;;;;;;;;;5081970;28;20471;-74
2023/06/23 06:50:28;;;;;;;6.73;4.80;;;;;;;;;;5061754;28;20759;-74
2023/06/23 06:53:00;;;;;;;6.50;5.27;;;;;;;;;;5073560;28;20453;-73
2023/06/23 06:55:31;;;;;;;6.80;5.30;;;;;;;;;;5077800;28;20492;-72
2023/06/23 06:57:59;;;;;;;6.20;5.00;;;;;;;;;;5087048;28;21064;-73
2023/06/23 07:00:45;;;;;;;10.37;4.47;;;;;;;;;;5095678;28;20671;-74
2023/06/23 07:03:29;;;;;;;6.30;4.97;;;;;;;;;;5095670;28;20904;-74
2023/06/23 07:06:00;;;;;;;5.33;4.47;;;;;;;;;;5096267;28;20557;-72
2023/06/23 07:08:36;;;;;;;6.83;4.77;;;;;;;;;;5098806;28;20472;-73
2023/06/23 07:11:25;;;;;;;7.40;5.13;;;;;;;;;;5089140;28;20476;-74
2023/06/23 07:14:11;;;;;;;6.80;4.97;;;;;;;;;;5076374;28;20436;-73
2023/06/23 07:16:39;;;;;;;12.20;5.43;;;;;;;;;;5074368;28;20448;-73
2023/06/23 07:19:22;;;;;;;5.23;4.07;;;;;;;;;;5083474;28;20489;-73
2023/06/23 07:21:50;;;;;;;4.73;3.70;;;;;;;;;;5073177;28;20464;-72
2023/06/23 07:24:18;;;;;;;4.73;3.60;;;;;;;;;;5075293;28;20463;-72
2023/06/23 07:26:46;;;;;;;6.03;4.17;;;;;;;;;;5108163;22;20482;-81
2023/06/23 07:29:14;;;;;;;6.37;4.43;;;;;;;;;;5131248;28;20519;-84
2023/06/23 07:31:42;;;;;;;6.53;4.00;;;;;;;;;;5132602;28;20445;-82
2023/06/23 07:34:11;;;;;;;6.47;5.13;;;;;;;;;;5129069;28;20486;-82
2023/06/23 07:36:38;;;;;;;4.77;3.57;;;;;;;;;;5113003;28;20511;-82
2023/06/23 07:39:08;;;;;;;6.00;3.93;;;;;;;;;;5100793;28;20687;-83
2023/06/23 07:41:35;;;;;;;5.10;4.03;;;;;;;;;;5102313;28;20438;-82
2023/06/23 07:44:07;;;;;;;5.20;3.80;;;;;;;;;;5106864;28;20444;-81
2023/06/23 07:46:36;;;;;;;6.10;3.27;;;;;;;;;;5114802;27;20488;-83
2023/06/23 07:49:03;;;;;;;6.10;4.10;;;;;;;;;;5109706;28;20468;-84
2023/06/23 07:51:32;;;;;;;6.80;3.60;;;;;;;;;;5106931;28;20456;-82
2023/06/23 07:54:02;;;;;;;4.73;3.43;;;;;;;;;;5107935;28;20451;-82
2023/06/23 07:56:30;;;;;;;4.07;3.00;;;;;;;;;;5100702;28;20763;-84
2023/06/23 07:58:57;;;;;;;9.00;4.00;;;;;;;;;;5105597;28;20509;-83
2023/06/23 08:01:25;;;;;;;7.73;3.20;;;;;;;;;;5111646;28;20455;-81
2023/06/23 08:04:01;;;;;;;5.50;3.70;;;;;;;;;;5125294;27;20451;-81
2023/06/23 08:06:28;;;;;;;7.30;3.70;;;;;;;;;;5108094;28;20471;-83
2023/06/23 08:12:02;;;;;;;5.37;3.47;;;;;;;;;;5106630;28;20425;-83
2023/06/23 08:14:38;;;;;;;7.60;3.57;;;;;;;;;;5139250;22;20502;-71
2023/06/23 08:17:07;;;;;;;6.07;3.50;;;;;;;;;;5105907;28;20455;-73
2023/06/23 08:19:38;;;;;;;4.20;3.53;;;;;;;;;;5094253;28;20448;-72
2023/06/23 08:22:09;;;;;;;8.50;4.50;;;;;;;;;;5092810;28;20454;-71
2023/06/23 08:24:37;;;;;;;11.03;3.03;;;;;;;;;;5089584;28;21075;-71
2023/06/23 10:14:16;;;;;;;10.43;8.70;;;;;;;;;;5143572;22;20199;-72
2023/06/23 10:16:45;;;;;;;8.17;6.80;;;;;;;;;;5071926;28;20455;-73
2023/06/23 10:19:14;;;;;;;8.80;7.27;;;;;;;;;;5084884;28;20497;-73
2023/06/23 10:22:16;;;;;;;10.30;7.30;;;;;;;;;;5097902;28;20483;-73
2023/06/23 10:25:02;;;;;;;8.80;7.77;;;;;;;;;;5092545;28;20522;-73
2023/06/23 10:27:32;;;;;;;8.50;7.27;;;;;;;;;;5112956;22;20501;-79
2023/06/23 10:30:10;;;;;;;9.30;7.20;;;;;;;;;;5100390;28;20501;-81
2023/06/23 10:32:38;;;;;;;10.83;7.37;;;;;;;;;;5101080;28;20492;-80
2023/06/23 10:35:08;;;;;;;10.43;7.30;;;;;;;;;;5098686;28;20440;-79
2023/06/23 10:37:49;;;;;;;11.43;7.53;;;;;;;;;;5099036;28;20456;-80
2023/06/23 10:40:20;;;;;;;8.77;7.33;;;;;;;;;;5082859;28;20471;-79
2023/06/23 10:42:50;;;;;;;8.10;6.40;;;;;;;;;;5080960;28;20444;-80
2023/06/23 10:45:21;;;;;;;9.20;6.63;;;;;;;;;;5097837;28;20694;-81
2023/06/23 10:47:50;;;;;;;13.17;8.30;;;;;;;;;;5107927;28;20435;-79
2023/06/23 10:50:17;;;;;;;8.00;6.50;;;;;;;;;;5092866;28;20491;-79
2023/06/23 10:52:45;;;;;;;8.33;7.40;;;;;;;;;;5113034;28;20451;-79
2023/06/23 10:55:39;;;;;;;9.73;7.67;;;;;;;;;;5105306;28;20801;-81
2023/06/23 10:58:14;;;;;;;15.00;6.80;;;;;;;;;;5068833;28;20459;-79
2023/06/23 11:00:46;;;;;;;10.77;7.70;;;;;;;;;;5100493;28;20459;-82
2023/06/23 11:03:38;;;;;;;7.50;6.27;;;;;;;;;;5102580;28;20460;-82
2023/06/23 11:06:06;;;;;;;10.13;6.80;;;;;;;;;;5100301;28;20509;-81
2023/06/23 11:14:48;;;;;;;12.33;6.90;;;;;;;;;;5127808;22;20494;-70
2023/06/23 11:17:32;;;;;;;9.17;6.73;;;;;;;;;;5115795;28;20458;-72
2023/06/23 11:20:04;;;;;;;10.43;7.07;;;;;;;;;;5114531;28;20456;-70
2023/06/23 11:25:36;;;;;;;12.60;9.00;;;;;;;;;;5113628;28;20463;-71
2023/06/23 12:14:52;;;;;;;11.17;7.20;;;;;;;;;;5077237;22;20575;-71
2023/06/23 12:17:23;;;;;;;8.70;6.57;;;;;;;;;;5135247;27;20460;-71
2023/06/23 12:19:51;;;;;;;9.20;6.10;;;;;;;;;;5132641;27;20454;-71
2023/06/23 12:22:36;;;;;;;12.17;6.80;;;;;;;;;;5131507;27;20484;-71
2023/06/23 12:25:14;;;;;;;10.63;7.37;;;;;;;;;;5118303;27;20501;-72
2023/06/23 12:48:31;;;;;;;8.17;6.33;;;;;;;;;;5835075;22;21283;-72
2023/06/23 12:54:14;;;;;;;8.57;5.70;;;;;;;;;;5067838;28;20407;-71
2023/06/23 12:56:46;;;;;;;9.23;6.00;;;;;;;;;;5067605;28;20506;-71
2023/06/23 12:59:29;;;;;;;9.90;7.53;;;;;;;;;;5068996;28;20869;-72
2023/06/23 13:02:18;;;;;;;10.90;7.37;;;;;;;;;;5070698;28;20444;-72
2023/06/23 13:08:33;;;;;;;6.97;5.70;;;;;;;;;;5061914;28;20493;-71
2023/06/23 13:11:08;;;;;;;9.40;7.07;;;;;;;;;;5097459;28;20479;-72
2023/06/23 13:13:50;;;;;;;10.53;7.63;;;;;;;;;;5111902;28;20812;-72
2023/06/23 13:16:26;;;;;;;8.50;6.60;;;;;;;;;;5094460;28;20466;-72
2023/06/23 13:18:58;;;;;;;10.13;7.43;;;;;;;;;;5090051;28;20462;-72
2023/06/23 13:21:27;;;;;;;8.30;7.30;;;;;;;;;;5098305;28;20451;-72
2023/06/23 13:24:18;;;;;;;9.33;7.20;;;;;;;;;;5098620;28;20466;-72
2023/06/23 13:26:49;;;;;;;10.03;8.97;;;;;;;;;;5118499;22;20489;-79
2023/06/23 13:29:20;;;;;;;10.57;7.90;;;;;;;;;;5095805;28;20466;-80
2023/06/23 13:31:48;;;;;;;9.60;7.63;;;;;;;;;;5100517;28;20472;-80
2023/06/23 13:34:18;;;;;;;13.00;8.37;;;;;;;;;;5100549;28;20507;-80
2023/06/23 13:36:50;;;;;;;10.30;8.80;;;;;;;;;;5093889;28;20482;-80
2023/06/23 13:39:36;;;;;;;9.60;8.60;;;;;;;;;;5094672;28;20495;-79
2023/06/23 13:42:04;;;;;;;11.10;7.50;;;;;;;;;;5093078;28;20492;-82
2023/06/23 13:44:41;;;;;;;9.00;8.10;;;;;;;;;;5105886;28;20451;-80
2023/06/23 13:47:10;;;;;;;8.67;7.77;;;;;;;;;;5088041;28;20452;-80
2023/06/23 13:49:38;;;;;;;9.80;8.00;;;;;;;;;;5098124;28;20463;-80
2023/06/23 13:52:08;;;;;;;12.13;7.73;;;;;;;;;;5099869;28;20502;-79
2023/06/23 13:54:37;;;;;;;9.80;7.37;;;;;;;;;;5104429;28;20764;-80
2023/06/23 13:57:06;;;;;;;7.77;6.97;;;;;;;;;;5097293;28;20460;-82
2023/06/23 13:59:35;;;;;;;11.93;9.47;;;;;;;;;;5092968;28;20501;-80
2023/06/23 14:02:05;;;;;;;12.10;7.37;;;;;;;;;;5093595;28;20467;-82
2023/06/23 14:04:33;;;;;;;10.57;8.33;;;;;;;;;;5082709;28;20485;-81
2023/06/23 14:07:01;;;;;;;9.20;7.90;;;;;;;;;;5085027;28;20479;-81
2023/06/23 14:19:15;;;;;;;9.53;7.67;;;;;;;;;;5093390;28;20476;-71
2023/06/23 14:30:41;;;;;;;9.90;8.47;;;;;;;;;;5687594;22;20506;-74
2023/06/23 14:33:11;;;;;;;10.70;8.80;;;;;;;;;;5080401;28;20461;-73
2023/06/23 14:35:56;;;;;;;14.80;8.50;;;;;;;;;;5078135;28;20459;-73
2023/06/23 14:38:26;;;;;;;8.83;7.97;;;;;;;;;;5090221;28;20455;-72
2023/06/23 14:41:10;;;;;;;9.40;7.90;;;;;;;;;;5085646;28;21155;-72
2023/06/23 14:43:44;;;;;;;8.37;7.37;;;;;;;;;;5080448;28;20544;-72
2023/06/23 14:46:38;;;;;;;8.13;7.33;;;;;;;;;;5086467;28;20440;-72
2023/06/23 14:49:39;;;;;;;10.27;7.77;;;;;;;;;;5098893;28;20482;-72
2023/06/23 14:52:33;;;;;;;9.87;7.70;;;;;;;;;;5100099;28;20482;-74
2023/06/23 14:55:10;;;;;;;9.90;6.97;;;;;;;;;;5115458;28;20941;-74
2023/06/23 14:57:42;;;;;;;9.40;6.63;;;;;;;;;;5116594;28;20474;-73
2023/06/23 15:00:13;;;;;;;11.50;8.10;;;;;;;;;;5117243;28;20465;-73
2023/06/23 15:02:52;;;;;;;8.43;6.40;;;;;;;;;;5114779;28;20459;-74
2023/06/23 15:05:24;;;;;;;9.87;7.43;;;;;;;;;;5097131;28;20451;-73
2023/06/23 15:08:11;;;;;;;9.50;7.10;;;;;;;;;;5096135;28;20444;-73
2023/06/23 15:16:43;;;;;;;9.37;7.60;;;;;;;;;;5108900;28;20836;-73
2023/06/23 15:19:42;;;;;;;9.17;6.87;;;;;;;;;;5112492;28;20810;-74
2023/06/23 15:22:14;;;;;;;6.80;6.00;;;;;;;;;;5112474;28;20454;-73
2023/06/23 15:27:46;;;;;;;5.17;4.00;;;;;;;;;;5126247;22;20521;-81
2023/06/23 15:30:16;;;;;;;5.30;3.83;;;;;;;;;;5084316;28;20863;-80
2023/06/23 15:32:47;;;;;;;6.20;3.70;;;;;;;;;;5095147;28;20488;-80
2023/06/23 15:35:16;;;;;;;7.27;4.03;;;;;;;;;;5101655;28;20509;-83
2023/06/23 15:37:44;;;;;;;4.90;3.57;;;;;;;;;;5104021;28;20466;-83
2023/06/23 15:40:12;;;;;;;11.43;4.03;;;;;;;;;;5086366;28;20461;-80
2023/06/23 15:42:40;;;;;;;7.60;3.30;;;;;;;;;;5085037;28;20530;-82
2023/06/23 15:45:12;;;;;;;5.80;3.70;;;;;;;;;;5085224;28;20469;-81
2023/06/23 15:47:42;;;;;;;7.10;3.47;;;;;;;;;;5094636;28;20471;-81
2023/06/23 15:50:09;;;;;;;6.90;4.17;;;;;;;;;;5082981;28;20444;-83
2023/06/23 15:52:38;;;;;;;5.60;3.63;;;;;;;;;;5079425;28;20480;-80
2023/06/23 15:55:06;;;;;;;6.10;3.13;;;;;;;;;;5077598;28;20455;-82
2023/06/23 15:57:34;;;;;;;6.10;4.20;;;;;;;;;;5079191;28;20775;-82
2023/06/23 16:00:02;;;;;;;7.00;4.70;;;;;;;;;;5079838;28;20489;-81
2023/06/23 16:02:31;;;;;;;7.47;4.60;;;;;;;;;;5080047;28;20517;-82
2023/06/23 16:04:58;;;;;;;5.77;3.90;;;;;;;;;;5081058;28;20481;-83
2023/06/23 16:07:33;;;;;;;5.00;3.27;;;;;;;;;;5079592;28;20728;-82
2023/06/23 16:13:09;;;;;;;8.70;3.57;;;;;;;;;;5081690;28;20427;-81
2023/06/23 16:15:45;;;;;;;6.70;3.27;;;;;;;;;;5131697;22;20510;-74
2023/06/23 16:18:15;;;;;;;5.80;3.80;;;;;;;;;;5113797;28;20470;-74
2023/06/23 16:20:44;;;;;;;7.60;3.90;;;;;;;;;;5114589;27;20511;-74
2023/06/23 16:23:18;;;;;;;5.20;3.00;;;;;;;;;;5113635;28;20465;-73
2023/06/23 16:25:46;;;;;;;6.33;3.37;;;;;;;;;;5114912;28;20447;-73
2023/06/23 16:43:56;;;;;;;8.13;3.37;;;;;;;;;;5880946;22;20761;-74
2023/06/23 16:46:25;;;;;;;5.93;2.80;;;;;;;;;;5089429;28;20452;-74
2023/06/23 16:48:56;;;;;;;4.37;2.10;;;;;;;;;;5088034;28;20751;-74
2023/06/23 16:51:26;;;;;;;4.30;2.90;;;;;;;;;;5071795;28;21131;-74
2023/06/23 16:53:56;;;;;;;7.10;2.40;;;;;;;;;;5070662;28;20492;-72
2023/06/23 16:56:29;;;;;;;4.07;2.50;;;;;;;;;;5070743;28;20504;-73
2023/06/23 16:59:13;;;;;;;5.87;3.23;;;;;;;;;;5071067;28;20449;-73
2023/06/23 17:01:59;;;;;;;3.90;2.53;;;;;;;;;;5072308;28;20436;-73
2023/06/23 17:04:28;;;;;;;5.50;2.90;;;;;;;;;;5072230;28;20460;-73
2023/06/23 17:06:57;;;;;;;4.47;2.80;;;;;;;;;;5072349;28;20468;-73
2023/06/23 17:09:31;;;;;;;4.40;2.70;;;;;;;;;;5090641;28;20499;-73
2023/06/23 17:12:03;;;;;;;4.33;2.63;;;;;;;;;;5090584;28;20493;-74
2023/06/23 17:14:35;;;;;;;5.73;4.10;;;;;;;;;;5088869;28;20505;-75
2023/06/23 17:17:08;;;;;;;7.73;2.97;;;;;;;;;;5088561;28;20447;-74
2023/06/23 17:22:20;;;;;;;4.93;3.40;;;;;;;;;;5104221;28;20455;-73
2023/06/23 17:24:53;;;;;;;5.40;2.87;;;;;;;;;;5105884;28;20447;-75
2023/06/23 17:27:21;;;;;;;4.57;2.67;;;;;;;;;;5121632;22;20756;-81
2023/06/23 17:29:51;;;;;;;4.60;2.70;;;;;;;;;;5102648;28;20463;-79
2023/06/23 17:32:19;;;;;;;6.23;2.83;;;;;;;;;;5098913;28;20556;-81
2023/06/23 17:34:46;;;;;;;5.40;2.90;;;;;;;;;;5102062;28;20515;-81
2023/06/23 17:37:16;;;;;;;4.80;3.30;;;;;;;;;;5104328;28;20471;-80
2023/06/23 17:39:44;;;;;;;5.00;3.63;;;;;;;;;;5106683;28;20568;-81
2023/06/23 17:42:12;;;;;;;5.70;3.30;;;;;;;;;;5103487;28;20513;-84
2023/06/23 17:44:41;;;;;;;6.07;3.03;;;;;;;;;;5083263;28;20444;-83
2023/06/23 17:47:10;;;;;;;4.97;3.30;;;;;;;;;;5077674;28;20448;-81
2023/06/23 17:49:38;;;;;;;5.13;3.10;;;;;;;;;;5083834;28;20438;-83
2023/06/23 17:52:08;;;;;;;6.27;3.17;;;;;;;;;;5088670;28;20468;-87
2023/06/23 17:54:37;;;;;;;7.90;3.80;;;;;;;;;;5086070;28;20487;-83
2023/06/23 17:57:12;;;;;;;6.87;3.90;;;;;;;;;;5101290;28;20462;-84
2023/06/23 17:59:40;;;;;;;6.60;3.40;;;;;;;;;;5103966;28;20486;-82
2023/06/23 18:02:20;;;;;;;5.77;3.20;;;;;;;;;;5104630;28;20461;-83
2023/06/23 18:04:50;;;;;;;7.20;3.83;;;;;;;;;;5106387;28;20733;-81
2023/06/23 18:07:19;;;;;;;4.60;2.53;;;;;;;;;;5104256;28;20754;-79
2023/06/23 18:15:54;;;;;;;5.20;2.90;;;;;;;;;;5072854;28;20609;-75
2023/06/23 18:18:32;;;;;;;5.80;3.30;;;;;;;;;;5074835;28;20458;-74
2023/06/23 18:21:03;;;;;;;6.77;3.80;;;;;;;;;;5067483;28;20455;-74
2023/06/23 18:23:47;;;;;;;5.70;3.57;;;;;;;;;;5069407;28;21088;-74
2023/06/23 18:31:36;;;;;;;4.87;3.53;;;;;;;;;;3303221;25;20482;-79
2023/06/23 18:34:08;;;;;;;5.37;3.30;;;;;;;;;;5121162;28;20475;-80
2023/06/23 18:36:40;;;;;;;5.37;3.33;;;;;;;;;;5120752;28;20541;-79
2023/06/23 18:39:08;;;;;;;4.93;3.13;;;;;;;;;;5124046;28;20523;-80
2023/06/23 18:41:38;;;;;;;5.67;3.60;;;;;;;;;;5121718;28;20442;-79
2023/06/23 18:44:05;;;;;;;4.90;3.03;;;;;;;;;;5123675;27;20762;-80
2023/06/23 18:46:41;;;;;;;5.57;3.10;;;;;;;;;;5124660;28;20521;-81
2023/06/23 18:49:15;;;;;;;4.83;3.03;;;;;;;;;;5126303;28;20456;-78
2023/06/23 18:51:42;;;;;;;5.07;3.10;;;;;;;;;;5130238;28;20490;-79
2023/06/23 18:54:11;;;;;;;5.70;3.30;;;;;;;;;;5120282;28;20426;-80
2023/06/23 18:56:42;;;;;;;5.53;3.13;;;;;;;;;;5111650;28;20632;-80
2023/06/23 18:59:09;;;;;;;4.90;2.60;;;;;;;;;;5107846;28;20507;-78
2023/06/23 19:01:37;;;;;;;6.10;3.33;;;;;;;;;;5105889;28;20486;-79
2023/06/23 19:04:04;;;;;;;5.47;3.60;;;;;;;;;;5108497;28;20447;-78
2023/06/23 19:06:34;;;;;;;6.40;3.17;;;;;;;;;;5104674;28;20482;-81
2023/06/23 19:14:36;;;;;;;5.90;3.80;;;;;;;;;;5126964;22;20523;-73
2023/06/23 19:17:14;;;;;;;6.80;3.43;;;;;;;;;;5093309;28;20293;-72
2023/06/23 19:20:01;;;;;;;5.40;3.40;;;;;;;;;;5092143;28;20443;-73
2023/06/23 19:22:41;;;;;;;6.67;3.53;;;;;;;;;;5098062;28;20522;-72
2023/06/23 19:25:42;;;;;;;4.60;3.00;;;;;;;;;;5095976;28;20447;-73
2023/06/23 19:28:14;;;;;;;4.47;2.80;;;;;;;;;;5090639;22;20570;-81
2023/06/23 19:30:50;;;;;;;5.70;3.30;;;;;;;;;;5110833;28;20464;-80
2023/06/23 19:33:26;;;;;;;5.40;3.80;;;;;;;;;;5109807;28;20498;-81
2023/06/23 19:36:06;;;;;;;5.73;3.90;;;;;;;;;;5109522;28;20470;-79
2023/06/23 19:41:46;;;;;;;7.50;4.07;;;;;;;;;;5109824;28;20467;-82
2023/06/23 19:44:15;;;;;;;6.63;4.20;;;;;;;;;;5104312;28;20451;-82
2023/06/23 19:46:44;;;;;;;8.87;4.20;;;;;;;;;;5102164;28;20478;-81
2023/06/23 19:49:13;;;;;;;5.83;4.30;;;;;;;;;;5103459;28;20455;-80
2023/06/23 19:51:41;;;;;;;7.10;4.33;;;;;;;;;;5105005;28;20522;-81
2023/06/23 19:57:15;;;;;;;8.27;4.70;;;;;;;;;;5104180;28;20443;-82
2023/06/23 19:59:46;;;;;;;6.33;4.00;;;;;;;;;;5105758;28;20540;-83
2023/06/23 20:02:16;;;;;;;5.60;4.73;;;;;;;;;;5104182;28;20743;-83
2023/06/23 20:05:17;;;;;;;6.53;4.77;;;;;;;;;;5108102;28;20686;-82
2023/06/23 20:08:05;;;;;;;7.20;5.10;;;;;;;;;;5113021;28;20464;-82
2023/06/23 20:16:17;;;;;;;5.90;4.90;;;;;;;;;;5030218;25;20905;-72
2023/06/23 20:18:56;;;;;;;5.87;5.10;;;;;;;;;;5090469;28;20497;-73
2023/06/23 20:21:26;;;;;;;7.47;4.83;;;;;;;;;;5074592;28;20974;-71
2023/06/23 20:24:02;;;;;;;7.70;6.03;;;;;;;;;;5076868;28;20470;-72
2023/06/23 21:14:57;;;;;;;7.63;5.63;;;;;;;;;;5106341;22;20826;-72
2023/06/23 21:17:37;;;;;;;9.23;6.73;;;;;;;;;;5084960;28;20444;-71
2023/06/23 21:20:09;;;;;;;9.03;4.73;;;;;;;;;;5071864;28;20441;-72
2023/06/23 21:22:41;;;;;;;8.83;5.83;;;;;;;;;;5079267;28;20516;-72
2023/06/23 21:25:09;;;;;;;9.50;7.23;;;;;;;;;;5092057;28;20456;-70
2023/06/23 21:27:36;;;;;;;8.10;6.57;;;;;;;;;;5120107;22;20493;-82
2023/06/23 21:30:11;;;;;;;9.43;6.50;;;;;;;;;;5117452;28;20439;-82
2023/06/23 21:32:39;;;;;;;9.03;5.53;;;;;;;;;;5117752;28;20752;-79
2023/06/23 21:35:08;;;;;;;8.63;5.97;;;;;;;;;;5121950;28;20566;-80
2023/06/23 21:37:36;;;;;;;9.77;7.67;;;;;;;;;;5120817;28;20455;-81
2023/06/23 21:40:09;;;;;;;7.87;6.43;;;;;;;;;;5120395;28;20463;-79
2023/06/23 21:42:36;;;;;;;7.67;6.03;;;;;;;;;;5116659;28;20519;-80
2023/06/23 21:45:03;;;;;;;7.37;5.70;;;;;;;;;;5118985;28;20443;-82
2023/06/23 21:47:36;;;;;;;10.33;5.43;;;;;;;;;;5122013;28;20458;-80
2023/06/23 21:50:08;;;;;;;8.60;5.60;;;;;;;;;;5126129;28;20725;-80
2023/06/23 21:52:42;;;;;;;7.47;6.40;;;;;;;;;;5128454;28;20501;-80
2023/06/23 21:55:10;;;;;;;7.47;6.43;;;;;;;;;;5125222;27;20667;-80
2023/06/23 21:57:40;;;;;;;7.43;6.53;;;;;;;;;;5122224;28;20446;-81
2023/06/23 22:00:10;;;;;;;7.00;5.90;;;;;;;;;;5125470;28;20439;-80
2023/06/23 22:02:38;;;;;;;8.83;6.90;;;;;;;;;;5125256;28;20518;-81
2023/06/23 22:05:08;;;;;;;8.40;5.73;;;;;;;;;;5124219;28;20517;-81
2023/06/23 22:07:35;;;;;;;8.43;6.50;;;;;;;;;;5119156;28;20454;-81
2023/06/23 22:15:32;;;;;;;7.57;6.50;;;;;;;;;;5117896;22;20835;-71
2023/06/23 22:18:02;;;;;;;8.83;6.47;;;;;;;;;;5076555;28;20260;-72
2023/06/23 22:20:33;;;;;;;10.03;7.00;;;;;;;;;;5074069;28;20452;-72
2023/06/23 22:23:04;;;;;;;9.47;6.53;;;;;;;;;;5076705;28;20440;-72